sensor_id;sensor_type;location;lat;lon;timestamp;P1;durP1;ratioP1;P2;durP2;ratioP2
27313;SDS011;14800;48.174;9.798;2023-04-15T00:01:57;4.53;;;2.35;;
27313;SDS011;14800;48.174;9.798;2023-04-15T00:04:23;4.85;;;2.50;;
27313;SDS011;14800;48.174;9.798;2023-04-15T00:06:52;4.32;;;2.75;;
27313;SDS011;14800;48.174;9.798;2023-04-15T00:09:19;4.75;;;2.78;;
27313;SDS011;14800;48.174;9.798;2023-04-15T00:11:45;5.25;;;2.75;;
27313;SDS011;14800;48.174;9.798;2023-04-15T00:14:11;5.57;;;3.30;;
27313;SDS011;14800;48.174;9.798;2023-04-15T00:16:37;5.68;;;2.88;;
27313;SDS011;14800;48.174;9.798;2023-04-15T00:19:03;5.80;;;2.75;;
27313;SDS011;14800;48.174;9.798;2023-04-15T00:21:29;5.28;;;2.50;;
27313;SDS011;14800;48.174;9.798;2023-04-15T00:23:54;4.72;;;2.63;;
27313;SDS011;14800;48.174;9.798;2023-04-15T00:26:20;4.40;;;2.53;;
27313;SDS011;14800;48.174;9.798;2023-04-15T00:28:46;4.80;;;2.72;;
27313;SDS011;14800;48.174;9.798;2023-04-15T00:31:12;5.97;;;2.58;;
27313;SDS011;14800;48.174;9.798;2023-04-15T00:33:38;7.05;;;3.45;;
27313;SDS011;14800;48.174;9.798;2023-04-15T00:36:05;7.93;;;3.85;;
27313;SDS011;14800;48.174;9.798;2023-04-15T00:38:30;10.63;;;4.22;;
27313;SDS011;14800;48.174;9.798;2023-04-15T00:40:56;9.35;;;4.93;;
27313;SDS011;14800;48.174;9.798;2023-04-15T00:43:22;11.18;;;4.93;;
27313;SDS011;14800;48.174;9.798;2023-04-15T00:45:48;7.95;;;4.38;;
27313;SDS011;14800;48.174;9.798;2023-04-15T00:48:15;6.43;;;3.50;;
27313;SDS011;14800;48.174;9.798;2023-04-15T00:50:41;7.35;;;3.70;;
27313;SDS011;14800;48.174;9.798;2023-04-15T00:53:07;4.43;;;3.15;;
27313;SDS011;14800;48.174;9.798;2023-04-15T00:55:32;6.43;;;3.25;;
27313;SDS011;14800;48.174;9.798;2023-04-15T00:57:58;5.13;;;2.83;;
27313;SDS011;14800;48.174;9.798;2023-04-15T01:00:23;7.70;;;3.40;;
27313;SDS011;14800;48.174;9.798;2023-04-15T01:02:49;6.72;;;3.50;;
27313;SDS011;14800;48.174;9.798;2023-04-15T01:05:15;8.13;;;4.00;;
27313;SDS011;14800;48.174;9.798;2023-04-15T01:07:42;8.82;;;3.58;;
27313;SDS011;14800;48.174;9.798;2023-04-15T01:10:08;7.60;;;3.20;;
27313;SDS011;14800;48.174;9.798;2023-04-15T01:12:34;4.55;;;2.80;;
27313;SDS011;14800;48.174;9.798;2023-04-15T01:15:00;5.60;;;2.75;;
27313;SDS011;14800;48.174;9.798;2023-04-15T01:17:26;4.25;;;2.67;;
27313;SDS011;14800;48.174;9.798;2023-04-15T01:19:52;4.97;;;2.72;;
27313;SDS011;14800;48.174;9.798;2023-04-15T01:22:22;3.50;;;2.40;;
27313;SDS011;14800;48.174;9.798;2023-04-15T01:24:50;4.78;;;2.17;;
27313;SDS011;14800;48.174;9.798;2023-04-15T01:27:26;3.53;;;2.13;;
27313;SDS011;14800;48.174;9.798;2023-04-15T01:29:52;4.97;;;2.40;;
27313;SDS011;14800;48.174;9.798;2023-04-15T01:32:17;2.78;;;1.88;;
27313;SDS011;14800;48.174;9.798;2023-04-15T01:34:43;3.33;;;2.08;;
27313;SDS011;14800;48.174;9.798;2023-04-15T01:37:09;3.63;;;2.20;;
27313;SDS011;14800;48.174;9.798;2023-04-15T01:39:35;3.60;;;2.33;;
27313;SDS011;14800;48.174;9.798;2023-04-15T01:42:01;7.70;;;2.60;;
27313;SDS011;14800;48.174;9.798;2023-04-15T01:44:27;4.90;;;2.15;;
27313;SDS011;14800;48.174;9.798;2023-04-15T01:46:52;3.00;;;2.00;;
27313;SDS011;14800;48.174;9.798;2023-04-15T01:49:18;4.45;;;2.00;;
27313;SDS011;14800;48.174;9.798;2023-04-15T01:51:44;5.03;;;1.88;;
27313;SDS011;14800;48.174;9.798;2023-04-15T01:54:09;7.00;;;2.10;;
27313;SDS011;14800;48.174;9.798;2023-04-15T01:56:35;4.28;;;2.10;;
27313;SDS011;14800;48.174;9.798;2023-04-15T01:59:00;5.75;;;2.13;;
27313;SDS011;14800;48.174;9.798;2023-04-15T02:01:27;4.88;;;2.15;;
27313;SDS011;14800;48.174;9.798;2023-04-15T02:03:53;3.83;;;2.00;;
27313;SDS011;14800;48.174;9.798;2023-04-15T02:06:18;3.83;;;2.15;;
27313;SDS011;14800;48.174;9.798;2023-04-15T02:08:45;4.57;;;2.22;;
27313;SDS011;14800;48.174;9.798;2023-04-15T02:11:10;5.20;;;2.13;;
27313;SDS011;14800;48.174;9.798;2023-04-15T02:13:36;3.92;;;2.05;;
27313;SDS011;14800;48.174;9.798;2023-04-15T02:16:01;4.90;;;2.00;;
27313;SDS011;14800;48.174;9.798;2023-04-15T02:18:27;4.18;;;2.20;;
27313;SDS011;14800;48.174;9.798;2023-04-15T02:20:53;4.82;;;2.53;;
27313;SDS011;14800;48.174;9.798;2023-04-15T02:23:21;4.78;;;2.40;;
27313;SDS011;14800;48.174;9.798;2023-04-15T02:25:46;2.95;;;2.10;;
27313;SDS011;14800;48.174;9.798;2023-04-15T02:28:12;6.40;;;2.08;;
27313;SDS011;14800;48.174;9.798;2023-04-15T02:30:37;5.10;;;2.30;;
27313;SDS011;14800;48.174;9.798;2023-04-15T02:33:04;5.47;;;2.15;;
27313;SDS011;14800;48.174;9.798;2023-04-15T02:35:31;5.50;;;2.50;;
27313;SDS011;14800;48.174;9.798;2023-04-15T02:37:56;3.58;;;2.28;;
27313;SDS011;14800;48.174;9.798;2023-04-15T02:40:22;4.00;;;1.98;;
27313;SDS011;14800;48.174;9.798;2023-04-15T02:42:48;5.03;;;2.15;;
27313;SDS011;14800;48.174;9.798;2023-04-15T02:45:13;5.50;;;2.20;;
27313;SDS011;14800;48.174;9.798;2023-04-15T02:47:39;4.28;;;2.13;;
27313;SDS011;14800;48.174;9.798;2023-04-15T02:50:09;4.05;;;1.90;;
27313;SDS011;14800;48.174;9.798;2023-04-15T02:52:38;4.68;;;2.33;;
27313;SDS011;14800;48.174;9.798;2023-04-15T02:55:05;4.35;;;2.03;;
27313;SDS011;14800;48.174;9.798;2023-04-15T02:57:31;4.45;;;1.95;;
27313;SDS011;14800;48.174;9.798;2023-04-15T02:59:56;3.60;;;2.00;;
27313;SDS011;14800;48.174;9.798;2023-04-15T03:02:22;4.13;;;2.00;;
27313;SDS011;14800;48.174;9.798;2023-04-15T03:04:48;5.68;;;2.25;;
27313;SDS011;14800;48.174;9.798;2023-04-15T03:07:13;5.10;;;1.95;;
27313;SDS011;14800;48.174;9.798;2023-04-15T03:09:39;4.47;;;2.35;;
27313;SDS011;14800;48.174;9.798;2023-04-15T03:12:05;4.75;;;2.90;;
27313;SDS011;14800;48.174;9.798;2023-04-15T03:14:31;9.48;;;3.33;;
27313;SDS011;14800;48.174;9.798;2023-04-15T03:16:56;6.32;;;3.15;;
27313;SDS011;14800;48.174;9.798;2023-04-15T03:19:23;5.75;;;2.60;;
27313;SDS011;14800;48.174;9.798;2023-04-15T03:21:49;4.85;;;2.60;;
27313;SDS011;14800;48.174;9.798;2023-04-15T03:24:16;5.00;;;3.22;;
27313;SDS011;14800;48.174;9.798;2023-04-15T03:26:41;5.47;;;3.13;;
27313;SDS011;14800;48.174;9.798;2023-04-15T03:29:07;6.97;;;3.35;;
27313;SDS011;14800;48.174;9.798;2023-04-15T03:31:33;3.92;;;2.65;;
27313;SDS011;14800;48.174;9.798;2023-04-15T03:33:58;5.15;;;2.47;;
27313;SDS011;14800;48.174;9.798;2023-04-15T03:36:24;6.68;;;2.30;;
27313;SDS011;14800;48.174;9.798;2023-04-15T03:38:51;3.30;;;2.35;;
27313;SDS011;14800;48.174;9.798;2023-04-15T03:41:16;4.43;;;2.35;;
27313;SDS011;14800;48.174;9.798;2023-04-15T03:43:42;4.63;;;2.35;;
27313;SDS011;14800;48.174;9.798;2023-04-15T03:46:08;6.32;;;2.22;;
27313;SDS011;14800;48.174;9.798;2023-04-15T03:48:33;3.58;;;2.00;;
27313;SDS011;14800;48.174;9.798;2023-04-15T03:50:59;6.20;;;2.35;;
27313;SDS011;14800;48.174;9.798;2023-04-15T03:53:25;5.43;;;2.20;;
27313;SDS011;14800;48.174;9.798;2023-04-15T03:55:50;3.53;;;1.90;;
27313;SDS011;14800;48.174;9.798;2023-04-15T03:58:16;2.72;;;1.80;;
27313;SDS011;14800;48.174;9.798;2023-04-15T04:00:42;6.65;;;2.42;;
27313;SDS011;14800;48.174;9.798;2023-04-15T04:03:08;4.85;;;2.50;;
27313;SDS011;14800;48.174;9.798;2023-04-15T04:05:33;5.97;;;2.20;;
27313;SDS011;14800;48.174;9.798;2023-04-15T04:08:02;4.85;;;2.20;;
27313;SDS011;14800;48.174;9.798;2023-04-15T04:10:28;3.30;;;2.50;;
27313;SDS011;14800;48.174;9.798;2023-04-15T04:12:54;6.90;;;2.70;;
27313;SDS011;14800;48.174;9.798;2023-04-15T04:15:19;5.90;;;3.13;;
27313;SDS011;14800;48.174;9.798;2023-04-15T04:17:45;6.47;;;3.13;;
27313;SDS011;14800;48.174;9.798;2023-04-15T04:20:11;4.10;;;2.78;;
27313;SDS011;14800;48.174;9.798;2023-04-15T04:22:39;5.10;;;2.90;;
27313;SDS011;14800;48.174;9.798;2023-04-15T04:25:06;5.03;;;2.60;;
27313;SDS011;14800;48.174;9.798;2023-04-15T04:27:35;6.03;;;3.00;;
27313;SDS011;14800;48.174;9.798;2023-04-15T04:30:01;6.15;;;3.17;;
27313;SDS011;14800;48.174;9.798;2023-04-15T04:32:26;5.00;;;3.00;;
27313;SDS011;14800;48.174;9.798;2023-04-15T04:34:52;5.00;;;2.80;;
27313;SDS011;14800;48.174;9.798;2023-04-15T04:37:18;6.90;;;2.92;;
27313;SDS011;14800;48.174;9.798;2023-04-15T04:39:43;5.57;;;2.53;;
27313;SDS011;14800;48.174;9.798;2023-04-15T04:42:09;3.95;;;2.78;;
27313;SDS011;14800;48.174;9.798;2023-04-15T04:44:35;5.82;;;2.95;;
27313;SDS011;14800;48.174;9.798;2023-04-15T04:47:01;4.97;;;2.95;;
27313;SDS011;14800;48.174;9.798;2023-04-15T04:49:26;5.65;;;2.67;;
27313;SDS011;14800;48.174;9.798;2023-04-15T04:51:52;6.22;;;2.72;;
27313;SDS011;14800;48.174;9.798;2023-04-15T04:54:18;7.50;;;3.17;;
27313;SDS011;14800;48.174;9.798;2023-04-15T04:56:43;5.85;;;3.13;;
27313;SDS011;14800;48.174;9.798;2023-04-15T04:59:09;6.95;;;3.92;;
27313;SDS011;14800;48.174;9.798;2023-04-15T05:01:34;11.35;;;4.57;;
27313;SDS011;14800;48.174;9.798;2023-04-15T05:04:00;14.23;;;6.03;;
27313;SDS011;14800;48.174;9.798;2023-04-15T05:06:25;22.55;;;9.43;;
27313;SDS011;14800;48.174;9.798;2023-04-15T05:08:54;24.75;;;10.23;;
27313;SDS011;14800;48.174;9.798;2023-04-15T05:11:20;29.65;;;12.15;;
27313;SDS011;14800;48.174;9.798;2023-04-15T05:13:46;32.50;;;12.50;;
27313;SDS011;14800;48.174;9.798;2023-04-15T05:16:11;26.35;;;10.90;;
27313;SDS011;14800;48.174;9.798;2023-04-15T05:18:37;18.17;;;9.45;;
27313;SDS011;14800;48.174;9.798;2023-04-15T05:21:03;15.20;;;7.38;;
27313;SDS011;14800;48.174;9.798;2023-04-15T05:23:29;12.18;;;5.47;;
27313;SDS011;14800;48.174;9.798;2023-04-15T05:25:55;10.43;;;4.90;;
27313;SDS011;14800;48.174;9.798;2023-04-15T05:28:20;7.13;;;4.13;;
27313;SDS011;14800;48.174;9.798;2023-04-15T05:30:46;6.82;;;3.75;;
27313;SDS011;14800;48.174;9.798;2023-04-15T05:33:11;7.03;;;4.05;;
27313;SDS011;14800;48.174;9.798;2023-04-15T05:35:37;7.60;;;4.22;;
27313;SDS011;14800;48.174;9.798;2023-04-15T05:38:02;9.07;;;4.50;;
27313;SDS011;14800;48.174;9.798;2023-04-15T05:40:29;10.60;;;5.20;;
27313;SDS011;14800;48.174;9.798;2023-04-15T05:42:54;8.98;;;4.55;;
27313;SDS011;14800;48.174;9.798;2023-04-15T05:45:20;10.07;;;4.90;;
27313;SDS011;14800;48.174;9.798;2023-04-15T05:47:46;11.25;;;4.80;;
27313;SDS011;14800;48.174;9.798;2023-04-15T05:50:11;10.90;;;4.32;;
27313;SDS011;14800;48.174;9.798;2023-04-15T05:52:37;7.72;;;4.93;;
27313;SDS011;14800;48.174;9.798;2023-04-15T05:55:03;7.78;;;4.18;;
27313;SDS011;14800;48.174;9.798;2023-04-15T05:57:28;5.32;;;3.38;;
27313;SDS011;14800;48.174;9.798;2023-04-15T05:59:54;6.43;;;2.95;;
27313;SDS011;14800;48.174;9.798;2023-04-15T06:02:21;8.07;;;3.72;;
27313;SDS011;14800;48.174;9.798;2023-04-15T06:04:46;6.53;;;3.85;;
27313;SDS011;14800;48.174;9.798;2023-04-15T06:07:12;5.47;;;3.65;;
27313;SDS011;14800;48.174;9.798;2023-04-15T06:09:38;5.90;;;3.70;;
27313;SDS011;14800;48.174;9.798;2023-04-15T06:12:03;5.28;;;3.60;;
27313;SDS011;14800;48.174;9.798;2023-04-15T06:14:30;6.75;;;3.38;;
27313;SDS011;14800;48.174;9.798;2023-04-15T06:16:56;5.78;;;3.40;;
27313;SDS011;14800;48.174;9.798;2023-04-15T06:19:21;6.68;;;3.40;;
27313;SDS011;14800;48.174;9.798;2023-04-15T06:21:47;7.63;;;3.75;;
27313;SDS011;14800;48.174;9.798;2023-04-15T06:24:13;7.15;;;3.80;;
27313;SDS011;14800;48.174;9.798;2023-04-15T06:26:38;24.95;;;11.95;;
27313;SDS011;14800;48.174;9.798;2023-04-15T06:29:04;94.68;;;36.95;;
27313;SDS011;14800;48.174;9.798;2023-04-15T06:31:30;23.42;;;11.43;;
27313;SDS011;14800;48.174;9.798;2023-04-15T06:33:55;12.95;;;7.60;;
27313;SDS011;14800;48.174;9.798;2023-04-15T06:36:21;11.32;;;6.10;;
27313;SDS011;14800;48.174;9.798;2023-04-15T06:38:47;11.18;;;5.35;;
27313;SDS011;14800;48.174;9.798;2023-04-15T06:41:12;9.98;;;4.50;;
27313;SDS011;14800;48.174;9.798;2023-04-15T06:43:38;7.30;;;3.80;;
27313;SDS011;14800;48.174;9.798;2023-04-15T06:46:04;11.85;;;5.13;;
27313;SDS011;14800;48.174;9.798;2023-04-15T06:48:29;10.60;;;4.93;;
27313;SDS011;14800;48.174;9.798;2023-04-15T06:50:55;8.45;;;4.50;;
27313;SDS011;14800;48.174;9.798;2023-04-15T06:53:22;8.40;;;4.28;;
27313;SDS011;14800;48.174;9.798;2023-04-15T06:55:48;6.53;;;3.60;;
27313;SDS011;14800;48.174;9.798;2023-04-15T06:58:14;8.02;;;3.80;;
27313;SDS011;14800;48.174;9.798;2023-04-15T07:00:40;5.65;;;4.05;;
27313;SDS011;14800;48.174;9.798;2023-04-15T07:03:06;6.18;;;3.88;;
27313;SDS011;14800;48.174;9.798;2023-04-15T07:05:34;13.00;;;5.28;;
27313;SDS011;14800;48.174;9.798;2023-04-15T07:08:00;14.52;;;6.72;;
27313;SDS011;14800;48.174;9.798;2023-04-15T07:10:26;6.95;;;3.40;;
27313;SDS011;14800;48.174;9.798;2023-04-15T07:12:51;5.63;;;3.13;;
27313;SDS011;14800;48.174;9.798;2023-04-15T07:15:17;7.60;;;3.50;;
27313;SDS011;14800;48.174;9.798;2023-04-15T07:17:42;7.57;;;3.90;;
27313;SDS011;14800;48.174;9.798;2023-04-15T07:20:08;5.78;;;3.65;;
27313;SDS011;14800;48.174;9.798;2023-04-15T07:22:34;7.22;;;3.65;;
27313;SDS011;14800;48.174;9.798;2023-04-15T07:24:59;4.38;;;2.97;;
27313;SDS011;14800;48.174;9.798;2023-04-15T07:27:25;4.38;;;3.08;;
27313;SDS011;14800;48.174;9.798;2023-04-15T07:29:51;7.60;;;2.88;;
27313;SDS011;14800;48.174;9.798;2023-04-15T07:32:17;7.10;;;3.00;;
27313;SDS011;14800;48.174;9.798;2023-04-15T07:34:43;8.27;;;3.70;;
27313;SDS011;14800;48.174;9.798;2023-04-15T07:37:08;5.13;;;2.78;;
27313;SDS011;14800;48.174;9.798;2023-04-15T07:39:34;5.03;;;2.63;;
27313;SDS011;14800;48.174;9.798;2023-04-15T07:42:01;5.25;;;2.72;;
27313;SDS011;14800;48.174;9.798;2023-04-15T07:44:26;6.68;;;2.90;;
27313;SDS011;14800;48.174;9.798;2023-04-15T07:46:52;4.10;;;1.90;;
27313;SDS011;14800;48.174;9.798;2023-04-15T07:49:18;2.53;;;1.40;;
27313;SDS011;14800;48.174;9.798;2023-04-15T07:51:45;2.80;;;1.40;;
27313;SDS011;14800;48.174;9.798;2023-04-15T07:54:11;3.35;;;1.40;;
27313;SDS011;14800;48.174;9.798;2023-04-15T07:56:37;5.15;;;2.03;;
27313;SDS011;14800;48.174;9.798;2023-04-15T07:59:02;1.88;;;1.23;;
27313;SDS011;14800;48.174;9.798;2023-04-15T08:01:30;4.00;;;1.80;;
27313;SDS011;14800;48.174;9.798;2023-04-15T08:03:56;2.35;;;1.17;;
27313;SDS011;14800;48.174;9.798;2023-04-15T08:06:23;1.92;;;1.27;;
27313;SDS011;14800;48.174;9.798;2023-04-15T08:08:48;2.67;;;1.15;;
27313;SDS011;14800;48.174;9.798;2023-04-15T08:11:14;3.75;;;1.27;;
27313;SDS011;14800;48.174;9.798;2023-04-15T08:13:40;3.25;;;1.20;;
27313;SDS011;14800;48.174;9.798;2023-04-15T08:16:18;2.95;;;1.40;;
27313;SDS011;14800;48.174;9.798;2023-04-15T08:18:48;4.22;;;1.70;;
27313;SDS011;14800;48.174;9.798;2023-04-15T08:21:15;4.35;;;1.40;;
27313;SDS011;14800;48.174;9.798;2023-04-15T08:23:41;2.78;;;1.60;;
27313;SDS011;14800;48.174;9.798;2023-04-15T08:26:07;2.13;;;1.27;;
27313;SDS011;14800;48.174;9.798;2023-04-15T08:28:33;2.25;;;1.10;;
27313;SDS011;14800;48.174;9.798;2023-04-15T08:30:59;2.65;;;1.30;;
27313;SDS011;14800;48.174;9.798;2023-04-15T08:33:25;2.13;;;1.30;;
27313;SDS011;14800;48.174;9.798;2023-04-15T08:35:51;3.25;;;1.33;;
27313;SDS011;14800;48.174;9.798;2023-04-15T08:38:17;3.10;;;1.38;;
27313;SDS011;14800;48.174;9.798;2023-04-15T08:40:43;1.98;;;1.40;;
27313;SDS011;14800;48.174;9.798;2023-04-15T08:43:11;2.28;;;1.52;;
27313;SDS011;14800;48.174;9.798;2023-04-15T08:45:40;3.13;;;1.70;;
27313;SDS011;14800;48.174;9.798;2023-04-15T08:48:06;2.92;;;1.35;;
27313;SDS011;14800;48.174;9.798;2023-04-15T08:50:36;6.78;;;1.50;;
27313;SDS011;14800;48.174;9.798;2023-04-15T08:53:02;2.53;;;1.40;;
27313;SDS011;14800;48.174;9.798;2023-04-15T08:55:29;4.80;;;1.60;;
27313;SDS011;14800;48.174;9.798;2023-04-15T08:58:00;3.50;;;1.50;;
27313;SDS011;14800;48.174;9.798;2023-04-15T09:00:27;4.15;;;1.40;;
27313;SDS011;14800;48.174;9.798;2023-04-15T09:02:53;3.17;;;1.60;;
27313;SDS011;14800;48.174;9.798;2023-04-15T09:05:20;2.95;;;1.40;;
27313;SDS011;14800;48.174;9.798;2023-04-15T09:07:47;4.00;;;1.52;;
27313;SDS011;14800;48.174;9.798;2023-04-15T09:10:14;3.25;;;1.40;;
27313;SDS011;14800;48.174;9.798;2023-04-15T09:12:39;5.07;;;1.52;;
27313;SDS011;14800;48.174;9.798;2023-04-15T09:15:05;3.13;;;1.35;;
27313;SDS011;14800;48.174;9.798;2023-04-15T09:17:36;4.45;;;1.90;;
27313;SDS011;14800;48.174;9.798;2023-04-15T09:22:37;4.00;;;1.50;;
27313;SDS011;14800;48.174;9.798;2023-04-15T09:25:07;4.40;;;1.83;;
27313;SDS011;14800;48.174;9.798;2023-04-15T09:27:51;4.00;;;1.80;;
27313;SDS011;14800;48.174;9.798;2023-04-15T09:30:18;4.20;;;1.70;;
27313;SDS011;14800;48.174;9.798;2023-04-15T09:35:16;5.72;;;1.45;;
27313;SDS011;14800;48.174;9.798;2023-04-15T09:37:42;6.28;;;1.67;;
27313;SDS011;14800;48.174;9.798;2023-04-15T09:40:08;3.90;;;1.60;;
27313;SDS011;14800;48.174;9.798;2023-04-15T09:42:35;4.88;;;1.38;;
27313;SDS011;14800;48.174;9.798;2023-04-15T09:45:08;4.30;;;1.10;;
27313;SDS011;14800;48.174;9.798;2023-04-15T09:47:36;3.75;;;1.20;;
27313;SDS011;14800;48.174;9.798;2023-04-15T09:50:02;4.53;;;1.23;;
27313;SDS011;14800;48.174;9.798;2023-04-15T09:52:28;3.95;;;1.40;;
27313;SDS011;14800;48.174;9.798;2023-04-15T09:54:56;3.92;;;1.55;;
27313;SDS011;14800;48.174;9.798;2023-04-15T09:57:23;4.70;;;1.50;;
27313;SDS011;14800;48.174;9.798;2023-04-15T09:59:51;6.65;;;1.48;;
27313;SDS011;14800;48.174;9.798;2023-04-15T10:02:17;3.25;;;1.58;;
27313;SDS011;14800;48.174;9.798;2023-04-15T10:04:47;3.63;;;1.70;;
27313;SDS011;14800;48.174;9.798;2023-04-15T10:07:13;2.95;;;1.23;;
27313;SDS011;14800;48.174;9.798;2023-04-15T10:09:39;4.07;;;1.52;;
27313;SDS011;14800;48.174;9.798;2023-04-15T10:12:05;2.45;;;1.15;;
27313;SDS011;14800;48.174;9.798;2023-04-15T10:14:32;1.90;;;1.23;;
27313;SDS011;14800;48.174;9.798;2023-04-15T10:17:00;2.83;;;1.10;;
27313;SDS011;14800;48.174;9.798;2023-04-15T10:19:30;2.40;;;1.13;;
27313;SDS011;14800;48.174;9.798;2023-04-15T10:21:57;4.05;;;1.52;;
27313;SDS011;14800;48.174;9.798;2023-04-15T10:24:23;4.45;;;1.30;;
27313;SDS011;14800;48.174;9.798;2023-04-15T10:26:50;3.58;;;1.23;;
27313;SDS011;14800;48.174;9.798;2023-04-15T10:29:16;4.25;;;1.30;;
27313;SDS011;14800;48.174;9.798;2023-04-15T10:31:43;2.58;;;1.20;;
27313;SDS011;14800;48.174;9.798;2023-04-15T10:34:09;2.78;;;1.50;;
27313;SDS011;14800;48.174;9.798;2023-04-15T10:36:35;3.38;;;1.10;;
27313;SDS011;14800;48.174;9.798;2023-04-15T10:39:01;4.68;;;1.33;;
27313;SDS011;14800;48.174;9.798;2023-04-15T10:41:27;3.42;;;1.40;;
27313;SDS011;14800;48.174;9.798;2023-04-15T10:49:12;3.70;;;1.10;;
27313;SDS011;14800;48.174;9.798;2023-04-15T10:51:50;3.83;;;1.30;;
27313;SDS011;14800;48.174;9.798;2023-04-15T10:57:22;3.53;;;1.58;;
27313;SDS011;14800;48.174;9.798;2023-04-15T10:59:59;2.85;;;1.30;;
27313;SDS011;14800;48.174;9.798;2023-04-15T11:02:40;4.50;;;1.50;;
27313;SDS011;14800;48.174;9.798;2023-04-15T11:05:15;3.75;;;1.10;;
27313;SDS011;14800;48.174;9.798;2023-04-15T11:12:41;4.03;;;1.30;;
27313;SDS011;14800;48.174;9.798;2023-04-15T11:20:36;2.13;;;1.30;;
27313;SDS011;14800;48.174;9.798;2023-04-15T11:23:02;3.80;;;1.42;;
27313;SDS011;14800;48.174;9.798;2023-04-15T11:25:29;4.68;;;1.38;;
27313;SDS011;14800;48.174;9.798;2023-04-15T11:27:57;2.50;;;1.30;;
27313;SDS011;14800;48.174;9.798;2023-04-15T11:30:24;5.03;;;1.45;;
27313;SDS011;14800;48.174;9.798;2023-04-15T11:32:53;4.38;;;1.38;;
27313;SDS011;14800;48.174;9.798;2023-04-15T11:35:23;3.60;;;1.40;;
27313;SDS011;14800;48.174;9.798;2023-04-15T11:37:48;3.53;;;1.15;;
27313;SDS011;14800;48.174;9.798;2023-04-15T11:40:14;3.25;;;1.40;;
27313;SDS011;14800;48.174;9.798;2023-04-15T11:42:42;3.38;;;1.50;;
27313;SDS011;14800;48.174;9.798;2023-04-15T11:45:12;2.17;;;1.25;;
27313;SDS011;14800;48.174;9.798;2023-04-15T11:47:39;1.73;;;1.05;;
27313;SDS011;14800;48.174;9.798;2023-04-15T11:50:17;2.67;;;1.10;;
27313;SDS011;14800;48.174;9.798;2023-04-15T11:52:54;2.90;;;1.00;;
27313;SDS011;14800;48.174;9.798;2023-04-15T11:55:24;4.78;;;1.13;;
27313;SDS011;14800;48.174;9.798;2023-04-15T12:11:19;1.80;;;1.00;;
27313;SDS011;14800;48.174;9.798;2023-04-15T12:13:57;1.80;;;0.90;;
27313;SDS011;14800;48.174;9.798;2023-04-15T12:16:27;2.20;;;1.00;;
27313;SDS011;14800;48.174;9.798;2023-04-15T12:18:55;3.80;;;1.05;;
27313;SDS011;14800;48.174;9.798;2023-04-15T12:21:23;2.83;;;1.10;;
27313;SDS011;14800;48.174;9.798;2023-04-15T12:23:49;2.20;;;1.13;;
27313;SDS011;14800;48.174;9.798;2023-04-15T12:26:26;4.07;;;1.10;;
27313;SDS011;14800;48.174;9.798;2023-04-15T12:29:02;1.98;;;0.98;;
27313;SDS011;14800;48.174;9.798;2023-04-15T12:31:29;2.88;;;1.10;;
27313;SDS011;14800;48.174;9.798;2023-04-15T12:33:55;1.30;;;0.80;;
27313;SDS011;14800;48.174;9.798;2023-04-15T12:36:22;4.45;;;1.02;;
27313;SDS011;14800;48.174;9.798;2023-04-15T12:38:48;2.85;;;1.20;;
27313;SDS011;14800;48.174;9.798;2023-04-15T12:41:14;1.85;;;0.90;;
27313;SDS011;14800;48.174;9.798;2023-04-15T12:43:40;1.48;;;1.00;;
27313;SDS011;14800;48.174;9.798;2023-04-15T12:46:08;1.65;;;1.10;;
27313;SDS011;14800;48.174;9.798;2023-04-15T12:48:34;2.38;;;1.00;;
27313;SDS011;14800;48.174;9.798;2023-04-15T12:50:59;1.70;;;0.70;;
27313;SDS011;14800;48.174;9.798;2023-04-15T12:53:25;1.55;;;1.00;;
27313;SDS011;14800;48.174;9.798;2023-04-15T12:55:52;3.08;;;1.40;;
27313;SDS011;14800;48.174;9.798;2023-04-15T12:58:18;3.95;;;1.25;;
27313;SDS011;14800;48.174;9.798;2023-04-15T13:00:43;3.00;;;1.35;;
27313;SDS011;14800;48.174;9.798;2023-04-15T13:03:09;4.22;;;1.45;;
27313;SDS011;14800;48.174;9.798;2023-04-15T13:05:34;2.15;;;1.20;;
27313;SDS011;14800;48.174;9.798;2023-04-15T13:08:01;3.50;;;1.30;;
27313;SDS011;14800;48.174;9.798;2023-04-15T13:10:28;2.83;;;1.20;;
27313;SDS011;14800;48.174;9.798;2023-04-15T13:12:53;2.08;;;1.10;;
27313;SDS011;14800;48.174;9.798;2023-04-15T13:15:20;2.75;;;1.30;;
27313;SDS011;14800;48.174;9.798;2023-04-15T13:17:46;4.88;;;1.30;;
27313;SDS011;14800;48.174;9.798;2023-04-15T13:20:12;5.25;;;1.17;;
27313;SDS011;14800;48.174;9.798;2023-04-15T13:22:38;1.80;;;1.15;;
27313;SDS011;14800;48.174;9.798;2023-04-15T13:25:04;4.85;;;1.42;;
27313;SDS011;14800;48.174;9.798;2023-04-15T13:27:31;3.47;;;1.33;;
27313;SDS011;14800;48.174;9.798;2023-04-15T13:29:57;2.50;;;1.10;;
27313;SDS011;14800;48.174;9.798;2023-04-15T13:32:23;3.83;;;1.23;;
27313;SDS011;14800;48.174;9.798;2023-04-15T13:34:49;2.70;;;1.20;;
27313;SDS011;14800;48.174;9.798;2023-04-15T13:37:15;2.00;;;1.17;;
27313;SDS011;14800;48.174;9.798;2023-04-15T13:39:40;4.13;;;1.13;;
27313;SDS011;14800;48.174;9.798;2023-04-15T13:42:06;1.40;;;1.10;;
27313;SDS011;14800;48.174;9.798;2023-04-15T13:44:32;3.33;;;1.30;;
27313;SDS011;14800;48.174;9.798;2023-04-15T13:46:57;1.55;;;0.95;;
27313;SDS011;14800;48.174;9.798;2023-04-15T13:49:23;1.85;;;1.08;;
27313;SDS011;14800;48.174;9.798;2023-04-15T13:51:49;3.72;;;1.27;;
27313;SDS011;14800;48.174;9.798;2023-04-15T13:54:15;1.25;;;0.90;;
27313;SDS011;14800;48.174;9.798;2023-04-15T13:56:40;2.70;;;1.30;;
27313;SDS011;14800;48.174;9.798;2023-04-15T13:59:06;2.65;;;1.17;;
27313;SDS011;14800;48.174;9.798;2023-04-15T14:01:33;2.03;;;1.17;;
27313;SDS011;14800;48.174;9.798;2023-04-15T14:03:58;1.80;;;1.67;;
27313;SDS011;14800;48.174;9.798;2023-04-15T14:06:24;2.55;;;1.40;;
27313;SDS011;14800;48.174;9.798;2023-04-15T14:08:51;3.28;;;2.17;;
27313;SDS011;14800;48.174;9.798;2023-04-15T14:11:17;4.00;;;2.78;;
27313;SDS011;14800;48.174;9.798;2023-04-15T14:13:42;3.78;;;2.17;;
27313;SDS011;14800;48.174;9.798;2023-04-15T14:16:08;4.45;;;2.80;;
27313;SDS011;14800;48.174;9.798;2023-04-15T14:18:34;4.75;;;2.63;;
27313;SDS011;14800;48.174;9.798;2023-04-15T14:21:01;6.22;;;2.42;;
27313;SDS011;14800;48.174;9.798;2023-04-15T14:23:27;4.47;;;2.47;;
27313;SDS011;14800;48.174;9.798;2023-04-15T14:25:53;3.42;;;2.20;;
27313;SDS011;14800;48.174;9.798;2023-04-15T14:28:19;3.80;;;2.35;;
27313;SDS011;14800;48.174;9.798;2023-04-15T14:30:44;2.85;;;2.45;;
27313;SDS011;14800;48.174;9.798;2023-04-15T14:33:10;3.28;;;2.20;;
27313;SDS011;14800;48.174;9.798;2023-04-15T14:35:36;2.85;;;2.20;;
27313;SDS011;14800;48.174;9.798;2023-04-15T14:38:02;3.55;;;2.22;;
27313;SDS011;14800;48.174;9.798;2023-04-15T14:40:28;3.72;;;2.47;;
27313;SDS011;14800;48.174;9.798;2023-04-15T14:42:53;3.47;;;2.30;;
27313;SDS011;14800;48.174;9.798;2023-04-15T14:45:19;4.38;;;2.40;;
27313;SDS011;14800;48.174;9.798;2023-04-15T14:47:45;3.42;;;1.95;;
27313;SDS011;14800;48.174;9.798;2023-04-15T14:50:11;4.95;;;2.50;;
27313;SDS011;14800;48.174;9.798;2023-04-15T14:52:37;3.38;;;2.42;;
27313;SDS011;14800;48.174;9.798;2023-04-15T14:55:06;4.15;;;2.72;;
27313;SDS011;14800;48.174;9.798;2023-04-15T14:57:34;4.45;;;3.33;;
27313;SDS011;14800;48.174;9.798;2023-04-15T15:00:01;5.50;;;3.30;;
27313;SDS011;14800;48.174;9.798;2023-04-15T15:02:28;3.97;;;3.03;;
27313;SDS011;14800;48.174;9.798;2023-04-15T15:04:53;4.32;;;3.00;;
27313;SDS011;14800;48.174;9.798;2023-04-15T15:07:19;3.22;;;2.92;;
27313;SDS011;14800;48.174;9.798;2023-04-15T15:09:46;3.22;;;2.90;;
27313;SDS011;14800;48.174;9.798;2023-04-15T15:12:11;4.82;;;3.30;;
27313;SDS011;14800;48.174;9.798;2023-04-15T15:14:37;3.15;;;2.90;;
27313;SDS011;14800;48.174;9.798;2023-04-15T15:17:02;3.40;;;3.10;;
27313;SDS011;14800;48.174;9.798;2023-04-15T15:19:28;4.45;;;3.30;;